sensor_id;sensor_type;location;lat;lon;timestamp;temperature;humidity
1830;DHT22;914;48.118;11.600;2023-05-07T00:01:43;16.80;99.90
1830;DHT22;914;48.118;11.600;2023-05-07T00:04:09;16.70;99.90
1830;DHT22;914;48.118;11.600;2023-05-07T00:06:34;16.60;99.90
1830;DHT22;914;48.118;11.600;2023-05-07T00:09:00;16.60;99.90
1830;DHT22;914;48.118;11.600;2023-05-07T00:11:27;16.60;99.90
1830;DHT22;914;48.118;11.600;2023-05-07T00:13:53;16.70;99.90
1830;DHT22;914;48.118;11.600;2023-05-07T00:16:19;16.70;99.90
1830;DHT22;914;48.118;11.600;2023-05-07T00:18:45;16.70;99.90
1830;DHT22;914;48.118;11.600;2023-05-07T00:21:11;16.70;99.90
1830;DHT22;914;48.118;11.600;2023-05-07T00:23:37;16.60;99.90
1830;DHT22;914;48.118;11.600;2023-05-07T00:26:03;16.40;99.90
1830;DHT22;914;48.118;11.600;2023-05-07T00:28:29;16.20;99.90
1830;DHT22;914;48.118;11.600;2023-05-07T00:30:55;16.30;99.90
1830;DHT22;914;48.118;11.600;2023-05-07T00:33:21;16.10;99.90
1830;DHT22;914;48.118;11.600;2023-05-07T00:35:47;16.00;99.90
1830;DHT22;914;48.118;11.600;2023-05-07T00:38:13;16.20;99.90
1830;DHT22;914;48.118;11.600;2023-05-07T00:40:39;15.60;99.90
1830;DHT22;914;48.118;11.600;2023-05-07T00:43:05;15.10;99.90
1830;DHT22;914;48.118;11.600;2023-05-07T00:45:31;15.30;99.90
1830;DHT22;914;48.118;11.600;2023-05-07T00:48:01;15.50;99.90
1830;DHT22;914;48.118;11.600;2023-05-07T00:50:28;15.70;99.90
1830;DHT22;914;48.118;11.600;2023-05-07T00:52:54;15.80;99.90
1830;DHT22;914;48.118;11.600;2023-05-07T00:55:21;16.00;99.90
1830;DHT22;914;48.118;11.600;2023-05-07T00:57:46;16.00;99.90
1830;DHT22;914;48.118;11.600;2023-05-07T01:00:13;16.00;99.90
1830;DHT22;914;48.118;11.600;2023-05-07T01:02:39;16.00;99.90
1830;DHT22;914;48.118;11.600;2023-05-07T01:05:10;16.10;99.90
1830;DHT22;914;48.118;11.600;2023-05-07T01:07:40;16.10;99.90
1830;DHT22;914;48.118;11.600;2023-05-07T01:10:07;16.20;99.90
1830;DHT22;914;48.118;11.600;2023-05-07T01:12:35;16.20;99.90
1830;DHT22;914;48.118;11.600;2023-05-07T01:15:02;16.10;99.90
1830;DHT22;914;48.118;11.600;2023-05-07T01:17:29;16.20;99.90
1830;DHT22;914;48.118;11.600;2023-05-07T01:19:55;16.30;99.90
1830;DHT22;914;48.118;11.600;2023-05-07T01:22:31;16.30;99.90
1830;DHT22;914;48.118;11.600;2023-05-07T01:24:58;16.20;99.90
1830;DHT22;914;48.118;11.600;2023-05-07T01:27:25;16.10;99.90
1830;DHT22;914;48.118;11.600;2023-05-07T01:29:51;16.20;99.90
1830;DHT22;914;48.118;11.600;2023-05-07T01:32:19;16.30;99.90
1830;DHT22;914;48.118;11.600;2023-05-07T01:34:48;16.40;99.90
1830;DHT22;914;48.118;11.600;2023-05-07T01:37:14;16.30;99.90
1830;DHT22;914;48.118;11.600;2023-05-07T01:39:40;16.20;99.90
1830;DHT22;914;48.118;11.600;2023-05-07T01:42:06;16.20;99.90
1830;DHT22;914;48.118;11.600;2023-05-07T01:44:32;16.10;99.90
1830;DHT22;914;48.118;11.600;2023-05-07T01:46:58;16.10;99.90
1830;DHT22;914;48.118;11.600;2023-05-07T01:49:25;16.10;99.90
1830;DHT22;914;48.118;11.600;2023-05-07T01:51:51;16.10;99.90
1830;DHT22;914;48.118;11.600;2023-05-07T01:54:17;16.00;99.90
1830;DHT22;914;48.118;11.600;2023-05-07T01:56:42;16.00;99.90
1830;DHT22;914;48.118;11.600;2023-05-07T01:59:08;16.00;99.90
1830;DHT22;914;48.118;11.600;2023-05-07T02:01:33;16.00;99.90
1830;DHT22;914;48.118;11.600;2023-05-07T02:04:00;15.90;99.90
1830;DHT22;914;48.118;11.600;2023-05-07T02:06:25;15.90;99.90
1830;DHT22;914;48.118;11.600;2023-05-07T02:08:51;15.90;99.90
1830;DHT22;914;48.118;11.600;2023-05-07T02:11:17;15.80;99.90
1830;DHT22;914;48.118;11.600;2023-05-07T02:13:42;15.80;99.90
1830;DHT22;914;48.118;11.600;2023-05-07T02:16:08;15.70;99.90
1830;DHT22;914;48.118;11.600;2023-05-07T02:18:34;15.70;99.90
1830;DHT22;914;48.118;11.600;2023-05-07T02:21:00;15.70;99.90
1830;DHT22;914;48.118;11.600;2023-05-07T02:23:26;15.70;99.90
1830;DHT22;914;48.118;11.600;2023-05-07T02:25:52;15.70;99.90
1830;DHT22;914;48.118;11.600;2023-05-07T02:28:17;15.90;99.90
1830;DHT22;914;48.118;11.600;2023-05-07T02:30:58;15.90;99.90
1830;DHT22;914;48.118;11.600;2023-05-07T02:33:25;15.90;99.90
1830;DHT22;914;48.118;11.600;2023-05-07T02:35:51;15.80;99.90
1830;DHT22;914;48.118;11.600;2023-05-07T02:38:17;15.80;99.90
1830;DHT22;914;48.118;11.600;2023-05-07T02:40:43;15.70;99.90
1830;DHT22;914;48.118;11.600;2023-05-07T02:43:09;15.60;99.90
1830;DHT22;914;48.118;11.600;2023-05-07T02:45:35;15.50;99.90
1830;DHT22;914;48.118;11.600;2023-05-07T02:48:03;15.40;99.90
1830;DHT22;914;48.118;11.600;2023-05-07T02:50:29;15.20;99.90
1830;DHT22;914;48.118;11.600;2023-05-07T02:52:55;15.20;99.90
1830;DHT22;914;48.118;11.600;2023-05-07T02:55:21;15.20;99.90
1830;DHT22;914;48.118;11.600;2023-05-07T02:57:46;15.20;99.90
1830;DHT22;914;48.118;11.600;2023-05-07T03:00:16;15.20;99.90
1830;DHT22;914;48.118;11.600;2023-05-07T03:02:42;15.30;99.90
1830;DHT22;914;48.118;11.600;2023-05-07T03:05:07;15.30;99.90
1830;DHT22;914;48.118;11.600;2023-05-07T03:07:35;15.30;99.90
1830;DHT22;914;48.118;11.600;2023-05-07T03:10:01;15.30;99.90
1830;DHT22;914;48.118;11.600;2023-05-07T03:12:26;15.30;99.90
1830;DHT22;914;48.118;11.600;2023-05-07T03:14:52;15.30;99.90
1830;DHT22;914;48.118;11.600;2023-05-07T03:17:17;15.20;99.90
1830;DHT22;914;48.118;11.600;2023-05-07T03:19:43;15.30;99.90
1830;DHT22;914;48.118;11.600;2023-05-07T03:22:08;15.40;99.90
1830;DHT22;914;48.118;11.600;2023-05-07T03:24:34;15.40;99.90
1830;DHT22;914;48.118;11.600;2023-05-07T03:27:00;15.40;99.90
1830;DHT22;914;48.118;11.600;2023-05-07T03:29:26;15.20;99.90
1830;DHT22;914;48.118;11.600;2023-05-07T03:31:52;15.10;99.90
1830;DHT22;914;48.118;11.600;2023-05-07T03:34:18;14.90;99.90
1830;DHT22;914;48.118;11.600;2023-05-07T03:36:48;14.90;99.90
1830;DHT22;914;48.118;11.600;2023-05-07T03:39:14;15.00;99.90
1830;DHT22;914;48.118;11.600;2023-05-07T03:41:40;15.00;99.90
1830;DHT22;914;48.118;11.600;2023-05-07T03:44:05;15.10;99.90
1830;DHT22;914;48.118;11.600;2023-05-07T03:46:31;15.20;99.90
1830;DHT22;914;48.118;11.600;2023-05-07T03:48:58;15.20;99.90
1830;DHT22;914;48.118;11.600;2023-05-07T03:51:24;15.20;99.90
1830;DHT22;914;48.118;11.600;2023-05-07T03:53:49;15.20;99.90
1830;DHT22;914;48.118;11.600;2023-05-07T03:56:18;15.10;99.90
1830;DHT22;914;48.118;11.600;2023-05-07T03:58:44;15.10;99.90
1830;DHT22;914;48.118;11.600;2023-05-07T04:01:09;15.00;99.90
1830;DHT22;914;48.118;11.600;2023-05-07T04:03:35;15.00;99.90
1830;DHT22;914;48.118;11.600;2023-05-07T04:06:01;15.00;99.90
1830;DHT22;914;48.118;11.600;2023-05-07T04:08:26;15.10;99.90
1830;DHT22;914;48.118;11.600;2023-05-07T04:10:56;15.00;99.90
1830;DHT22;914;48.118;11.600;2023-05-07T04:13:22;15.00;99.90
1830;DHT22;914;48.118;11.600;2023-05-07T04:15:47;15.00;99.90
1830;DHT22;914;48.118;11.600;2023-05-07T04:18:14;14.90;99.90
1830;DHT22;914;48.118;11.600;2023-05-07T04:20:40;14.90;99.90
1830;DHT22;914;48.118;11.600;2023-05-07T04:23:07;14.90;99.90
1830;DHT22;914;48.118;11.600;2023-05-07T04:25:32;15.00;99.90
1830;DHT22;914;48.118;11.600;2023-05-07T04:27:58;14.90;99.90
1830;DHT22;914;48.118;11.600;2023-05-07T04:30:24;14.90;99.90
1830;DHT22;914;48.118;11.600;2023-05-07T04:32:50;15.10;99.90
1830;DHT22;914;48.118;11.600;2023-05-07T04:35:16;15.00;99.90
1830;DHT22;914;48.118;11.600;2023-05-07T04:37:42;14.90;99.90
1830;DHT22;914;48.118;11.600;2023-05-07T04:40:07;14.90;99.90
1830;DHT22;914;48.118;11.600;2023-05-07T04:42:33;15.00;99.90
1830;DHT22;914;48.118;11.600;2023-05-07T04:44:59;15.10;99.90
1830;DHT22;914;48.118;11.600;2023-05-07T04:47:25;15.00;99.90
1830;DHT22;914;48.118;11.600;2023-05-07T04:49:51;14.90;99.90
1830;DHT22;914;48.118;11.600;2023-05-07T04:52:16;14.90;99.90
1830;DHT22;914;48.118;11.600;2023-05-07T04:54:42;15.00;99.90
1830;DHT22;914;48.118;11.600;2023-05-07T04:57:08;15.00;99.90
1830;DHT22;914;48.118;11.600;2023-05-07T04:59:33;15.10;99.90
1830;DHT22;914;48.118;11.600;2023-05-07T05:01:59;15.20;99.90
1830;DHT22;914;48.118;11.600;2023-05-07T05:04:24;15.20;99.90
1830;DHT22;914;48.118;11.600;2023-05-07T05:06:51;15.20;99.90
1830;DHT22;914;48.118;11.600;2023-05-07T05:09:16;15.30;99.90
1830;DHT22;914;48.118;11.600;2023-05-07T05:11:42;15.30;99.90
1830;DHT22;914;48.118;11.600;2023-05-07T05:14:08;15.30;99.90
1830;DHT22;914;48.118;11.600;2023-05-07T05:16:33;15.30;99.90
1830;DHT22;914;48.118;11.600;2023-05-07T05:19:01;15.10;99.90
1830;DHT22;914;48.118;11.600;2023-05-07T05:21:27;15.10;99.90
1830;DHT22;914;48.118;11.600;2023-05-07T05:23:52;15.20;99.90
1830;DHT22;914;48.118;11.600;2023-05-07T05:26:18;15.20;99.90
1830;DHT22;914;48.118;11.600;2023-05-07T05:28:44;15.30;99.90
1830;DHT22;914;48.118;11.600;2023-05-07T05:31:10;15.50;99.90
1830;DHT22;914;48.118;11.600;2023-05-07T05:33:35;15.70;99.90
1830;DHT22;914;48.118;11.600;2023-05-07T05:36:01;15.70;99.90
1830;DHT22;914;48.118;11.600;2023-05-07T05:38:27;15.70;99.90
1830;DHT22;914;48.118;11.600;2023-05-07T05:40:52;15.60;99.90
1830;DHT22;914;48.118;11.600;2023-05-07T05:43:18;15.60;99.90
1830;DHT22;914;48.118;11.600;2023-05-07T05:45:43;15.60;99.90
1830;DHT22;914;48.118;11.600;2023-05-07T05:48:09;15.70;99.90
1830;DHT22;914;48.118;11.600;2023-05-07T05:50:35;15.80;99.90
1830;DHT22;914;48.118;11.600;2023-05-07T05:53:03;16.00;99.90
1830;DHT22;914;48.118;11.600;2023-05-07T05:55:29;16.20;99.90
1830;DHT22;914;48.118;11.600;2023-05-07T05:57:58;16.30;99.90
1830;DHT22;914;48.118;11.600;2023-05-07T06:00:24;16.40;99.90
1830;DHT22;914;48.118;11.600;2023-05-07T06:02:49;16.50;99.90
1830;DHT22;914;48.118;11.600;2023-05-07T06:05:15;16.70;99.90
1830;DHT22;914;48.118;11.600;2023-05-07T06:07:41;16.80;99.90
1830;DHT22;914;48.118;11.600;2023-05-07T06:10:07;16.90;99.90
1830;DHT22;914;48.118;11.600;2023-05-07T06:12:32;17.10;99.90
1830;DHT22;914;48.118;11.600;2023-05-07T06:14:58;17.10;99.90
1830;DHT22;914;48.118;11.600;2023-05-07T06:17:24;17.00;99.90
1830;DHT22;914;48.118;11.600;2023-05-07T06:19:49;17.00;99.90
1830;DHT22;914;48.118;11.600;2023-05-07T06:22:15;17.10;99.90
1830;DHT22;914;48.118;11.600;2023-05-07T06:24:41;17.30;99.90
1830;DHT22;914;48.118;11.600;2023-05-07T06:27:06;17.50;99.90
1830;DHT22;914;48.118;11.600;2023-05-07T06:29:48;17.70;99.90
1830;DHT22;914;48.118;11.600;2023-05-07T06:32:14;17.80;99.90
1830;DHT22;914;48.118;11.600;2023-05-07T06:34:40;18.00;99.90
1830;DHT22;914;48.118;11.600;2023-05-07T06:37:07;18.00;99.90
1830;DHT22;914;48.118;11.600;2023-05-07T06:39:33;18.10;99.90
1830;DHT22;914;48.118;11.600;2023-05-07T06:42:00;18.30;99.90
1830;DHT22;914;48.118;11.600;2023-05-07T06:44:26;18.40;99.90
1830;DHT22;914;48.118;11.600;2023-05-07T06:46:51;18.70;99.90
1830;DHT22;914;48.118;11.600;2023-05-07T06:49:17;18.70;99.90
1830;DHT22;914;48.118;11.600;2023-05-07T06:51:42;18.80;99.90
1830;DHT22;914;48.118;11.600;2023-05-07T06:54:08;19.00;99.90
1830;DHT22;914;48.118;11.600;2023-05-07T06:56:34;19.00;99.90
1830;DHT22;914;48.118;11.600;2023-05-07T06:59:03;19.10;99.90
1830;DHT22;914;48.118;11.600;2023-05-07T07:01:29;19.30;99.90
1830;DHT22;914;48.118;11.600;2023-05-07T07:03:55;19.30;99.90
1830;DHT22;914;48.118;11.600;2023-05-07T07:06:20;19.60;99.90
1830;DHT22;914;48.118;11.600;2023-05-07T07:08:46;19.10;99.90
1830;DHT22;914;48.118;11.600;2023-05-07T07:11:12;19.20;99.90
1830;DHT22;914;48.118;11.600;2023-05-07T07:13:37;19.40;99.90
1830;DHT22;914;48.118;11.600;2023-05-07T07:16:03;19.50;99.90
1830;DHT22;914;48.118;11.600;2023-05-07T07:18:29;19.50;99.90
1830;DHT22;914;48.118;11.600;2023-05-07T07:20:55;19.80;99.90
1830;DHT22;914;48.118;11.600;2023-05-07T07:23:20;20.00;99.90
1830;DHT22;914;48.118;11.600;2023-05-07T07:25:46;20.00;99.90
1830;DHT22;914;48.118;11.600;2023-05-07T07:28:12;20.00;99.90
1830;DHT22;914;48.118;11.600;2023-05-07T07:30:38;20.10;99.90
1830;DHT22;914;48.118;11.600;2023-05-07T07:33:04;19.80;99.90
1830;DHT22;914;48.118;11.600;2023-05-07T07:35:33;20.00;99.90
1830;DHT22;914;48.118;11.600;2023-05-07T07:37:59;20.30;99.90
1830;DHT22;914;48.118;11.600;2023-05-07T07:40:25;20.40;99.90
1830;DHT22;914;48.118;11.600;2023-05-07T07:42:52;20.60;99.90
1830;DHT22;914;48.118;11.600;2023-05-07T07:45:18;20.60;99.90
1830;DHT22;914;48.118;11.600;2023-05-07T07:47:43;20.60;99.90
1830;DHT22;914;48.118;11.600;2023-05-07T07:50:09;20.60;99.90
1830;DHT22;914;48.118;11.600;2023-05-07T07:52:35;20.90;99.90
1830;DHT22;914;48.118;11.600;2023-05-07T07:55:01;20.90;99.90
1830;DHT22;914;48.118;11.600;2023-05-07T07:57:27;20.40;99.90
1830;DHT22;914;48.118;11.600;2023-05-07T07:59:53;20.60;99.90
1830;DHT22;914;48.118;11.600;2023-05-07T08:02:18;20.80;99.90
1830;DHT22;914;48.118;11.600;2023-05-07T08:04:44;21.20;99.90
1830;DHT22;914;48.118;11.600;2023-05-07T08:07:10;21.50;99.90
1830;DHT22;914;48.118;11.600;2023-05-07T08:09:37;21.70;99.90
1830;DHT22;914;48.118;11.600;2023-05-07T08:12:03;22.00;99.90
1830;DHT22;914;48.118;11.600;2023-05-07T08:14:29;21.50;99.30
1830;DHT22;914;48.118;11.600;2023-05-07T08:16:55;21.90;99.70
1830;DHT22;914;48.118;11.600;2023-05-07T08:19:20;21.10;99.80
1830;DHT22;914;48.118;11.600;2023-05-07T08:21:47;21.40;99.90
1830;DHT22;914;48.118;11.600;2023-05-07T08:24:14;21.40;99.70
1830;DHT22;914;48.118;11.600;2023-05-07T08:26:40;21.50;99.60
1830;DHT22;914;48.118;11.600;2023-05-07T08:29:06;21.70;99.00
1830;DHT22;914;48.118;11.600;2023-05-07T08:31:31;21.90;99.10
1830;DHT22;914;48.118;11.600;2023-05-07T08:33:58;22.20;98.30
1830;DHT22;914;48.118;11.600;2023-05-07T08:36:24;22.40;97.50
1830;DHT22;914;48.118;11.600;2023-05-07T08:38:49;21.00;97.80
1830;DHT22;914;48.118;11.600;2023-05-07T08:41:15;21.00;99.90
1830;DHT22;914;48.118;11.600;2023-05-07T08:43:41;21.30;98.90
1830;DHT22;914;48.118;11.600;2023-05-07T08:46:09;21.90;98.90
1830;DHT22;914;48.118;11.600;2023-05-07T08:48:36;22.30;98.80
1830;DHT22;914;48.118;11.600;2023-05-07T08:51:02;22.40;98.90
1830;DHT22;914;48.118;11.600;2023-05-07T08:53:28;22.60;98.30
1830;DHT22;914;48.118;11.600;2023-05-07T08:55:54;22.50;97.60
1830;DHT22;914;48.118;11.600;2023-05-07T08:58:20;22.30;96.30
1830;DHT22;914;48.118;11.600;2023-05-07T09:00:46;22.40;98.00
1830;DHT22;914;48.118;11.600;2023-05-07T09:03:12;22.60;96.70
1830;DHT22;914;48.118;11.600;2023-05-07T09:05:38;22.80;97.90
1830;DHT22;914;48.118;11.600;2023-05-07T09:08:06;23.10;96.80
1830;DHT22;914;48.118;11.600;2023-05-07T09:10:34;23.20;97.00
1830;DHT22;914;48.118;11.600;2023-05-07T09:13:00;23.00;96.20
1830;DHT22;914;48.118;11.600;2023-05-07T09:15:27;22.70;94.10
1830;DHT22;914;48.118;11.600;2023-05-07T09:17:53;21.70;96.20
1830;DHT22;914;48.118;11.600;2023-05-07T09:20:19;21.10;97.70
1830;DHT22;914;48.118;11.600;2023-05-07T09:22:44;21.50;99.10
1830;DHT22;914;48.118;11.600;2023-05-07T09:25:12;21.90;98.00
1830;DHT22;914;48.118;11.600;2023-05-07T09:27:37;22.60;98.70
1830;DHT22;914;48.118;11.600;2023-05-07T09:30:04;23.30;97.80
1830;DHT22;914;48.118;11.600;2023-05-07T09:32:35;23.50;96.80
1830;DHT22;914;48.118;11.600;2023-05-07T09:35:01;23.00;94.60
1830;DHT22;914;48.118;11.600;2023-05-07T09:37:30;22.70;95.50
1830;DHT22;914;48.118;11.600;2023-05-07T09:39:56;22.70;95.50
1830;DHT22;914;48.118;11.600;2023-05-07T09:42:25;22.70;94.30
1830;DHT22;914;48.118;11.600;2023-05-07T09:44:52;22.20;95.30
1830;DHT22;914;48.118;11.600;2023-05-07T09:47:24;22.40;94.80
1830;DHT22;914;48.118;11.600;2023-05-07T09:49:50;22.50;92.60
1830;DHT22;914;48.118;11.600;2023-05-07T09:52:21;22.10;93.90
1830;DHT22;914;48.118;11.600;2023-05-07T09:54:47;22.50;93.60
1830;DHT22;914;48.118;11.600;2023-05-07T09:57:15;23.20;94.30
1830;DHT22;914;48.118;11.600;2023-05-07T09:59:43;23.70;94.20
1830;DHT22;914;48.118;11.600;2023-05-07T10:02:09;23.80;92.80
1830;DHT22;914;48.118;11.600;2023-05-07T10:04:36;23.80;92.00
1830;DHT22;914;48.118;11.600;2023-05-07T10:07:03;23.80;91.40
1830;DHT22;914;48.118;11.600;2023-05-07T10:09:30;23.80;92.30
1830;DHT22;914;48.118;11.600;2023-05-07T10:11:56;23.60;91.20
1830;DHT22;914;48.118;11.600;2023-05-07T10:14:22;23.50;91.20
1830;DHT22;914;48.118;11.600;2023-05-07T10:16:48;24.00;92.80
1830;DHT22;914;48.118;11.600;2023-05-07T10:19:14;24.30;90.90
1830;DHT22;914;48.118;11.600;2023-05-07T10:21:44;24.70;91.20
1830;DHT22;914;48.118;11.600;2023-05-07T10:24:21;24.80;90.90
1830;DHT22;914;48.118;11.600;2023-05-07T10:26:49;24.90;90.30
1830;DHT22;914;48.118;11.600;2023-05-07T10:32:48;24.10;91.50
1830;DHT22;914;48.118;11.600;2023-05-07T10:35:29;24.50;89.60
1830;DHT22;914;48.118;11.600;2023-05-07T10:37:55;24.40;90.60
1830;DHT22;914;48.118;11.600;2023-05-07T10:40:21;23.50;88.00
1830;DHT22;914;48.118;11.600;2023-05-07T10:42:57;23.50;88.40
1830;DHT22;914;48.118;11.600;2023-05-07T10:45:25;23.60;87.20
1830;DHT22;914;48.118;11.600;2023-05-07T10:48:13;22.20;89.80
1830;DHT22;914;48.118;11.600;2023-05-07T10:50:40;22.30;91.20
1830;DHT22;914;48.118;11.600;2023-05-07T10:55:46;23.00;87.00
1830;DHT22;914;48.118;11.600;2023-05-07T10:58:32;23.70;90.10
1830;DHT22;914;48.118;11.600;2023-05-07T11:01:01;23.80;89.80
1830;DHT22;914;48.118;11.600;2023-05-07T11:03:28;24.00;90.40
1830;DHT22;914;48.118;11.600;2023-05-07T11:06:14;24.40;90.60
1830;DHT22;914;48.118;11.600;2023-05-07T11:08:58;24.50;89.20
1830;DHT22;914;48.118;11.600;2023-05-07T11:11:50;24.50;88.90
1830;DHT22;914;48.118;11.600;2023-05-07T11:14:43;24.80;91.80
1830;DHT22;914;48.118;11.600;2023-05-07T11:17:11;25.10;87.60
1830;DHT22;914;48.118;11.600;2023-05-07T11:19:55;23.40;88.90
1830;DHT22;914;48.118;11.600;2023-05-07T11:24:57;23.60;92.00
1830;DHT22;914;48.118;11.600;2023-05-07T11:27:25;23.90;90.80
1830;DHT22;914;48.118;11.600;2023-05-07T11:29:51;24.10;90.20
1830;DHT22;914;48.118;11.600;2023-05-07T11:32:31;23.40;92.00
1830;DHT22;914;48.118;11.600;2023-05-07T11:34:58;22.90;91.40
1830;DHT22;914;48.118;11.600;2023-05-07T11:37:25;23.30;92.30
1830;DHT22;914;48.118;11.600;2023-05-07T11:40:05;23.10;92.50
1830;DHT22;914;48.118;11.600;2023-05-07T11:42:36;22.70;92.80
1830;DHT22;914;48.118;11.600;2023-05-07T11:45:03;23.20;92.10
1830;DHT22;914;48.118;11.600;2023-05-07T11:47:33;23.30;92.50
1830;DHT22;914;48.118;11.600;2023-05-07T11:50:06;23.50;92.30
1830;DHT22;914;48.118;11.600;2023-05-07T11:52:33;23.30;92.20
1830;DHT22;914;48.118;11.600;2023-05-07T11:54:59;24.10;91.90
1830;DHT22;914;48.118;11.600;2023-05-07T11:57:26;23.50;92.00
1830;DHT22;914;48.118;11.600;2023-05-07T11:59:55;22.80;92.50
1830;DHT22;914;48.118;11.600;2023-05-07T12:02:21;23.80;93.90
1830;DHT22;914;48.118;11.600;2023-05-07T12:04:47;24.30;94.60
1830;DHT22;914;48.118;11.600;2023-05-07T12:07:14;25.10;90.50
1830;DHT22;914;48.118;11.600;2023-05-07T12:09:44;24.20;90.70
1830;DHT22;914;48.118;11.600;2023-05-07T12:12:10;24.00;91.60
1830;DHT22;914;48.118;11.600;2023-05-07T12:14:39;24.70;90.60
1830;DHT22;914;48.118;11.600;2023-05-07T12:17:07;24.60;90.20
1830;DHT22;914;48.118;11.600;2023-05-07T12:19:34;24.60;89.10
1830;DHT22;914;48.118;11.600;2023-05-07T12:22:01;24.30;90.90
1830;DHT22;914;48.118;11.600;2023-05-07T12:24:27;25.00;89.40
1830;DHT22;914;48.118;11.600;2023-05-07T12:26:54;25.70;90.90
1830;DHT22;914;48.118;11.600;2023-05-07T12:29:23;25.50;86.80
1830;DHT22;914;48.118;11.600;2023-05-07T12:31:52;25.40;86.10
1830;DHT22;914;48.118;11.600;2023-05-07T12:34:18;24.90;87.10
1830;DHT22;914;48.118;11.600;2023-05-07T12:36:43;24.50;89.20
1830;DHT22;914;48.118;11.600;2023-05-07T12:39:09;25.30;88.30
1830;DHT22;914;48.118;11.600;2023-05-07T12:41:55;24.60;89.50
1830;DHT22;914;48.118;11.600;2023-05-07T12:44:26;25.00;89.40
1830;DHT22;914;48.118;11.600;2023-05-07T12:46:54;24.90;86.10
1830;DHT22;914;48.118;11.600;2023-05-07T12:49:20;25.30;86.50
1830;DHT22;914;48.118;11.600;2023-05-07T12:51:49;25.40;86.40
1830;DHT22;914;48.118;11.600;2023-05-07T12:54:28;24.20;85.10
1830;DHT22;914;48.118;11.600;2023-05-07T12:57:21;23.90;87.20
1830;DHT22;914;48.118;11.600;2023-05-07T12:59:46;23.80;86.40
1830;DHT22;914;48.118;11.600;2023-05-07T13:02:12;23.50;87.10
1830;DHT22;914;48.118;11.600;2023-05-07T13:04:38;24.20;86.70
1830;DHT22;914;48.118;11.600;2023-05-07T13:07:03;23.90;86.60
1830;DHT22;914;48.118;11.600;2023-05-07T13:09:31;24.60;84.50
1830;DHT22;914;48.118;11.600;2023-05-07T13:11:57;23.70;84.50
1830;DHT22;914;48.118;11.600;2023-05-07T13:14:25;24.00;84.90
1830;DHT22;914;48.118;11.600;2023-05-07T13:16:50;24.60;83.90
1830;DHT22;914;48.118;11.600;2023-05-07T13:19:16;25.20;83.90
1830;DHT22;914;48.118;11.600;2023-05-07T13:21:42;24.30;79.80
1830;DHT22;914;48.118;11.600;2023-05-07T13:24:08;23.50;81.90
1830;DHT22;914;48.118;11.600;2023-05-07T13:26:34;24.20;81.10
1830;DHT22;914;48.118;11.600;2023-05-07T13:28:59;24.50;80.90
1830;DHT22;914;48.118;11.600;2023-05-07T13:31:25;24.90;79.20
1830;DHT22;914;48.118;11.600;2023-05-07T13:33:51;25.60;77.80
1830;DHT22;914;48.118;11.600;2023-05-07T13:36:17;25.40;74.80
1830;DHT22;914;48.118;11.600;2023-05-07T13:38:45;25.80;80.50
1830;DHT22;914;48.118;11.600;2023-05-07T13:41:11;26.20;74.30
1830;DHT22;914;48.118;11.600;2023-05-07T13:43:38;25.00;74.40
1830;DHT22;914;48.118;11.600;2023-05-07T13:46:04;24.40;77.50
1830;DHT22;914;48.118;11.600;2023-05-07T13:48:29;24.60;77.80
1830;DHT22;914;48.118;11.600;2023-05-07T13:50:55;25.80;79.30
1830;DHT22;914;48.118;11.600;2023-05-07T13:53:21;26.10;75.30
1830;DHT22;914;48.118;11.600;2023-05-07T13:55:46;26.40;74.80
1830;DHT22;914;48.118;11.600;2023-05-07T13:58:12;27.10;75.20
1830;DHT22;914;48.118;11.600;2023-05-07T14:00:37;26.50;75.30
1830;DHT22;914;48.118;11.600;2023-05-07T14:03:04;27.40;77.20
1830;DHT22;914;48.118;11.600;2023-05-07T14:05:30;28.00;74.80
1830;DHT22;914;48.118;11.600;2023-05-07T14:07:57;28.60;73.80
1830;DHT22;914;48.118;11.600;2023-05-07T14:10:23;29.20;70.80
1830;DHT22;914;48.118;11.600;2023-05-07T14:12:49;27.60;72.70
1830;DHT22;914;48.118;11.600;2023-05-07T14:15:15;27.90;78.20
1830;DHT22;914;48.118;11.600;2023-05-07T14:17:41;28.00;77.50
1830;DHT22;914;48.118;11.600;2023-05-07T14:20:08;28.00;70.00
1830;DHT22;914;48.118;11.600;2023-05-07T14:22:34;26.10;71.80
1830;DHT22;914;48.118;11.600;2023-05-07T14:25:03;26.10;75.60
1830;DHT22;914;48.118;11.600;2023-05-07T14:27:29;26.20;74.60
1830;DHT22;914;48.118;11.600;2023-05-07T14:29:55;26.10;74.60
1830;DHT22;914;48.118;11.600;2023-05-07T14:32:21;25.30;78.10
1830;DHT22;914;48.118;11.600;2023-05-07T14:34:47;25.00;77.30
1830;DHT22;914;48.118;11.600;2023-05-07T14:37:12;25.20;84.00
1830;DHT22;914;48.118;11.600;2023-05-07T14:39:38;25.10;77.00
1830;DHT22;914;48.118;11.600;2023-05-07T14:42:04;24.10;80.30
1830;DHT22;914;48.118;11.600;2023-05-07T14:44:30;23.90;79.90
1830;DHT22;914;48.118;11.600;2023-05-07T14:46:56;23.40;82.00
1830;DHT22;914;48.118;11.600;2023-05-07T14:49:22;22.80;84.10
1830;DHT22;914;48.118;11.600;2023-05-07T14:51:48;22.60;85.80
1830;DHT22;914;48.118;11.600;2023-05-07T14:54:14;22.50;86.30
1830;DHT22;914;48.118;11.600;2023-05-07T14:56:40;22.70;87.40
1830;DHT22;914;48.118;11.600;2023-05-07T14:59:07;23.30;86.80
1830;DHT22;914;48.118;11.600;2023-05-07T15:01:34;23.10;86.10
1830;DHT22;914;48.118;11.600;2023-05-07T15:04:00;22.90;87.70
1830;DHT22;914;48.118;11.600;2023-05-07T15:06:26;23.30;86.80
1830;DHT22;914;48.118;11.600;2023-05-07T15:08:52;23.20;85.20
1830;DHT22;914;48.118;11.600;2023-05-07T15:11:17;23.30;87.20
1830;DHT22;914;48.118;11.600;2023-05-07T15:13:43;22.90;85.80
1830;DHT22;914;48.118;11.600;2023-05-07T15:16:09;22.70;86.30
1830;DHT22;914;48.118;11.600;2023-05-07T15:18:34;22.80;87.20
1830;DHT22;914;48.118;11.600;2023-05-07T15:21:00;22.70;87.70
1830;DHT22;914;48.118;11.600;2023-05-07T15:23:25;22.60;88.40
1830;DHT22;914;48.118;11.600;2023-05-07T15:25:52;23.10;87.40
1830;DHT22;914;48.118;11.600;2023-05-07T15:28:18;23.60;87.20
1830;DHT22;914;48.118;11.600;2023-05-07T15:30:44;22.90;86.20
1830;DHT22;914;48.118;11.600;2023-05-07T15:33:10;22.60;87.10
1830;DHT22;914;48.118;11.600;2023-05-07T15:35:36;22.40;89.00
1830;DHT22;914;48.118;11.600;2023-05-07T15:38:02;22.50;88.80
1830;DHT22;914;48.118;11.600;2023-05-07T15:40:30;22.60;88.50
1830;DHT22;914;48.118;11.600;2023-05-07T15:42:58;22.70;86.60
1830;DHT22;914;48.118;11.600;2023-05-07T15:45:24;22.60;87.40
1830;DHT22;914;48.118;11.600;2023-05-07T15:47:50;23.00;86.50
1830;DHT22;914;48.118;11.600;2023-05-07T15:50:15;22.30;86.40
1830;DHT22;914;48.118;11.600;2023-05-07T15:52:41;22.30;88.50
1830;DHT22;914;48.118;11.600;2023-05-07T15:55:07;22.70;88.70
1830;DHT22;914;48.118;11.600;2023-05-07T15:57:34;22.60;87.80
1830;DHT22;914;48.118;11.600;2023-05-07T16:00:00;22.10;87.40
1830;DHT22;914;48.118;11.600;2023-05-07T16:02:26;22.30;86.90
1830;DHT22;914;48.118;11.600;2023-05-07T16:04:52;22.20;87.10
1830;DHT22;914;48.118;11.600;2023-05-07T16:07:17;22.30;86.30
1830;DHT22;914;48.118;11.600;2023-05-07T16:09:44;22.60;87.30